Time;durP1;ratioP1;P1;durP2;ratioP2;P2;SDS_P1;SDS_P2;PMS_P1;PMS_P2;Temp;Humidity;BMP_temperature;BMP_pressure;BME280_temperature;BME280_humidity;BME280_pressure;Samples;Min_cycle;Max_cycle;Signal;HPM_P1;HPM_P2
2023/10/03 00:00:33;;;;;;;10.02;3.72;;;;;;;20.19;100.00;100638.56;5025670;28;20490;-67
2023/10/03 00:03:00;;;;;;;10.82;3.75;;;;;;;20.25;100.00;100634.91;5014693;28;20052;-67
2023/10/03 00:05:30;;;;;;;8.63;3.83;;;;;;;20.33;99.57;100630.06;5020825;28;20042;-67
2023/10/03 00:07:56;;;;;;;10.10;3.67;;;;;;;20.22;99.46;100618.56;5030058;28;20120;-66
2023/10/03 00:10:23;;;;;;;9.70;3.80;;;;;;;20.27;99.21;100615.34;5030495;28;20021;-66
2023/10/03 00:12:49;;;;;;;9.88;3.33;;;;;;;20.25;99.14;100613.03;5023544;28;20061;-66
2023/10/03 00:15:18;;;;;;;8.43;3.50;;;;;;;20.22;99.34;100613.09;5025693;28;20029;-66
2023/10/03 00:17:45;;;;;;;11.18;3.85;;;;;;;20.27;98.91;100607.91;5026314;28;20033;-66
2023/10/03 00:20:16;;;;;;;10.88;3.88;;;;;;;20.29;99.18;100588.34;5027283;28;20034;-67
2023/10/03 00:22:46;;;;;;;9.95;3.50;;;;;;;20.29;99.20;100582.84;5022871;28;20068;-66
2023/10/03 00:25:23;;;;;;;11.30;3.97;;;;;;;20.26;98.87;100578.25;5030705;28;20025;-66
2023/10/03 00:27:55;;;;;;;10.05;3.85;;;;;;;20.18;99.67;100568.59;5026573;28;20497;-66
2023/10/03 00:30:26;;;;;;;11.65;3.58;;;;;;;20.24;99.08;100572.44;5028317;28;20033;-66
2023/10/03 00:32:52;;;;;;;12.70;4.20;;;;;;;20.27;98.58;100572.34;5029423;28;20038;-66
2023/10/03 00:35:21;;;;;;;10.50;4.05;;;;;;;20.30;98.41;100565.25;5024119;28;20035;-66
2023/10/03 00:37:48;;;;;;;11.45;3.78;;;;;;;20.30;98.46;100566.03;5027945;28;20022;-66
2023/10/03 00:42:48;;;;;;;14.15;3.55;;;;;;;20.09;99.78;100557.47;5026916;28;20040;-66
2023/10/03 00:45:26;;;;;;;6.68;3.53;;;;;;;20.15;99.98;100553.06;5023760;28;20030;-66
2023/10/03 00:47:58;;;;;;;12.35;3.58;;;;;;;20.12;100.00;100549.19;5025088;28;20033;-66
2023/10/03 00:50:28;;;;;;;11.45;4.60;;;;;;;20.22;99.84;100541.97;5021001;28;20041;-66
2023/10/03 00:52:58;;;;;;;8.73;3.58;;;;;;;20.27;99.49;100538.75;5027149;28;20037;-66
2023/10/03 00:55:32;;;;;;;11.50;3.83;;;;;;;20.29;99.13;100536.34;5025009;28;20395;-66
2023/10/03 00:58:06;;;;;;;9.10;3.13;;;;;;;20.30;98.99;100518.75;5024368;28;20413;-66
2023/10/03 01:00:43;;;;;;;9.25;2.97;;;;;;;20.25;99.10;100520.03;5042128;28;20551;-66
2023/10/03 01:03:24;;;;;;;11.45;3.78;;;;;;;20.29;98.93;100517.97;5023360;28;20044;-66
2023/10/03 01:05:53;;;;;;;9.40;3.03;;;;;;;20.24;98.69;100501.31;5023908;28;20040;-66
2023/10/03 01:08:21;;;;;;;11.85;3.63;;;;;;;20.21;98.92;100502.16;5023082;28;20029;-65
2023/10/03 01:10:46;;;;;;;9.60;3.97;;;;;;;20.20;98.88;100495.13;5028469;28;20086;-66
2023/10/03 01:13:12;;;;;;;9.50;3.42;;;;;;;20.11;99.46;100498.41;5025452;28;20033;-66
2023/10/03 01:15:38;;;;;;;9.07;3.90;;;;;;;20.13;99.17;100492.53;5021554;28;20411;-66
2023/10/03 01:18:05;;;;;;;8.98;3.33;;;;;;;20.18;98.48;100486.56;5029082;28;20029;-66
2023/10/03 01:20:40;;;;;;;9.55;3.72;;;;;;;20.18;98.59;100481.88;5012654;28;20534;-66
2023/10/03 01:23:10;;;;;;;7.90;3.25;;;;;;;20.13;98.59;100471.41;5011996;28;20038;-66
2023/10/03 01:25:42;;;;;;;10.68;3.55;;;;;;;20.17;97.91;100458.41;5026894;28;20025;-66
2023/10/03 01:28:11;;;;;;;7.28;3.30;;;;;;;20.07;98.75;100450.47;5028334;28;20041;-66
2023/10/03 01:30:37;;;;;;;10.38;3.95;;;;;;;20.08;98.79;100454.72;5019891;28;20061;-66
2023/10/03 01:33:04;;;;;;;10.63;3.80;;;;;;;19.96;99.00;100434.28;5030553;28;20026;-67
2023/10/03 01:35:30;;;;;;;8.48;3.47;;;;;;;20.00;98.38;100431.47;5023119;28;20492;-66
2023/10/03 01:37:55;;;;;;;9.77;3.85;;;;;;;19.97;98.30;100415.91;5023048;28;20041;-67
2023/10/03 01:40:22;;;;;;;8.60;3.38;;;;;;;19.97;98.25;100411.22;5024425;28;20033;-66
2023/10/03 01:42:47;;;;;;;7.45;2.75;;;;;;;19.94;97.49;100405.84;5029210;28;20045;-67
2023/10/03 01:45:17;;;;;;;10.32;3.80;;;;;;;19.90;97.60;100416.09;5027544;28;20026;-66
2023/10/03 01:47:48;;;;;;;9.85;3.65;;;;;;;19.85;97.39;100400.16;5029192;28;20037;-66
2023/10/03 01:50:14;;;;;;;7.40;2.75;;;;;;;19.83;97.25;100397.09;5029360;28;20124;-66
2023/10/03 01:52:41;;;;;;;9.05;3.20;;;;;;;19.75;96.81;100396.47;5025517;28;20034;-66
2023/10/03 01:55:13;;;;;;;7.13;3.05;;;;;;;19.69;97.37;100387.22;5035649;28;20026;-66
2023/10/03 01:57:40;;;;;;;5.18;2.53;;;;;;;19.61;97.40;100383.88;5031444;28;20089;-66
2023/10/03 02:00:26;;;;;;;9.32;3.70;;;;;;;19.57;97.26;100376.94;5028850;28;20032;-66
2023/10/03 02:03:04;;;;;;;10.95;3.25;;;;;;;19.62;97.59;100363.56;5027787;28;20125;-67
2023/10/03 02:05:33;;;;;;;6.03;2.63;;;;;;;19.59;97.23;100364.41;5024350;28;20037;-66
2023/10/03 02:08:04;;;;;;;6.82;2.75;;;;;;;19.54;97.23;100355.94;5030119;28;20505;-66
2023/10/03 02:10:30;;;;;;;6.70;3.00;;;;;;;19.51;97.13;100363.00;5028342;28;20543;-66
2023/10/03 02:12:56;;;;;;;7.50;2.85;;;;;;;19.47;96.65;100358.81;5032865;28;20128;-66
2023/10/03 02:15:23;;;;;;;9.00;3.08;;;;;;;19.43;97.18;100360.84;5027783;28;20465;-66
2023/10/03 02:17:50;;;;;;;9.80;3.60;;;;;;;19.48;97.61;100360.34;5032457;28;20061;-65
2023/10/03 02:20:25;;;;;;;9.27;3.38;;;;;;;19.38;98.59;100362.09;5033740;28;20453;-66
2023/10/03 02:22:55;;;;;;;9.18;3.28;;;;;;;19.53;98.24;100349.69;5032333;28;20037;-67
2023/10/03 02:25:28;;;;;;;7.72;2.75;;;;;;;19.52;98.50;100336.47;5029225;28;20112;-66
2023/10/03 02:27:56;;;;;;;9.65;3.10;;;;;;;19.61;97.80;100336.63;5013956;28;20041;-66
2023/10/03 02:30:23;;;;;;;6.47;2.50;;;;;;;19.45;99.62;100331.91;5030955;28;20030;-66
2023/10/03 02:32:52;;;;;;;6.88;2.88;;;;;;;19.52;99.43;100328.25;5041127;28;20397;-66
2023/10/03 02:35:23;;;;;;;9.02;3.00;;;;;;;19.59;99.45;100320.69;5028425;28;20021;-66
2023/10/03 02:37:55;;;;;;;10.15;2.63;;;;;;;19.70;98.39;100313.00;5029136;28;20037;-66
2023/10/03 02:40:22;;;;;;;7.05;3.00;;;;;;;19.76;98.09;100305.84;5031282;28;20036;-67
2023/10/03 02:42:50;;;;;;;7.78;3.33;;;;;;;19.80;97.52;100284.66;5016177;28;20133;-66
2023/10/03 02:45:17;;;;;;;8.50;3.40;;;;;;;19.76;97.38;100275.03;5031898;28;20566;-66
2023/10/03 02:47:44;;;;;;;6.65;3.05;;;;;;;19.78;97.42;100278.84;5031620;28;20037;-66
2023/10/03 02:50:12;;;;;;;8.63;2.85;;;;;;;19.70;97.70;100269.28;5029001;28;20536;-66
2023/10/03 02:52:39;;;;;;;10.75;3.22;;;;;;;19.64;97.67;100267.50;5028180;28;20030;-66
2023/10/03 02:55:08;;;;;;;7.97;3.20;;;;;;;19.61;97.88;100252.72;5030539;28;20020;-66
2023/10/03 02:57:35;;;;;;;8.23;3.22;;;;;;;19.73;97.45;100251.28;5028588;28;20036;-66
2023/10/03 03:00:05;;;;;;;7.60;3.17;;;;;;;19.69;97.12;100240.44;5026584;28;20519;-66
2023/10/03 03:02:34;;;;;;;9.52;3.45;;;;;;;19.70;97.22;100227.53;5030928;28;20047;-66
2023/10/03 03:04:59;;;;;;;7.28;3.10;;;;;;;19.70;97.06;100211.16;5030727;28;20470;-66
2023/10/03 03:07:27;;;;;;;5.93;3.13;;;;;;;19.73;96.61;100208.31;5032152;28;20095;-66
2023/10/03 03:09:56;;;;;;;8.02;3.15;;;;;;;19.75;96.71;100189.53;5039051;28;20036;-66
2023/10/03 03:12:22;;;;;;;8.48;2.95;;;;;;;19.75;96.47;100175.09;5013634;28;20038;-66
2023/10/03 03:14:48;;;;;;;8.10;2.90;;;;;;;19.78;96.13;100169.53;5027474;28;20018;-65
2023/10/03 03:17:14;;;;;;;6.10;3.05;;;;;;;19.85;96.06;100159.63;5026444;28;20132;-66
2023/10/03 03:19:40;;;;;;;5.50;2.83;;;;;;;19.85;95.64;100152.19;5028724;28;20161;-66
2023/10/03 03:22:05;;;;;;;9.30;3.05;;;;;;;19.79;95.56;100146.47;5030945;28;20041;-66
2023/10/03 03:24:34;;;;;;;7.05;2.95;;;;;;;19.74;95.65;100138.78;5026814;28;20116;-67
2023/10/03 03:27:00;;;;;;;8.38;3.00;;;;;;;19.80;95.16;100139.81;5027566;28;20449;-66
2023/10/03 03:29:35;;;;;;;8.82;2.60;;;;;;;19.78;94.77;100136.72;5028497;28;20695;-66
2023/10/03 03:32:04;;;;;;;10.57;3.15;;;;;;;19.79;94.42;100132.81;5024952;28;20029;-65
2023/10/03 03:34:30;;;;;;;7.57;2.53;;;;;;;19.66;95.21;100128.47;5009929;28;20037;-66
2023/10/03 03:37:20;;;;;;;10.35;3.38;;;;;;;19.67;94.98;100128.03;5026292;28;20065;-66
2023/10/03 03:39:57;;;;;;;7.05;3.17;;;;;;;19.66;94.60;100134.72;5028681;28;20036;-66
2023/10/03 03:42:22;;;;;;;12.43;3.33;;;;;;;19.33;95.57;100122.28;5027475;28;20482;-66
2023/10/03 03:44:51;;;;;;;9.10;2.72;;;;;;;19.16;96.22;100120.69;5030088;28;20034;-67
2023/10/03 03:47:18;;;;;;;8.38;2.70;;;;;;;19.32;95.88;100107.06;5031160;28;20037;-67
2023/10/03 03:49:44;;;;;;;5.95;2.95;;;;;;;19.46;94.56;100101.25;5031711;28;20120;-67
2023/10/03 03:52:12;;;;;;;9.95;2.85;;;;;;;19.48;94.46;100098.09;5028717;28;20048;-67
2023/10/03 03:54:39;;;;;;;8.07;3.30;;;;;;;19.47;94.78;100099.31;5031878;28;20037;-66
2023/10/03 03:57:05;;;;;;;8.93;2.55;;;;;;;19.34;93.59;100096.47;5031806;28;20465;-67
2023/10/03 03:59:32;;;;;;;9.85;2.55;;;;;;;19.23;94.44;100082.28;5025251;28;20054;-67
2023/10/03 04:01:59;;;;;;;8.00;2.42;;;;;;;19.30;94.54;100068.47;5022920;28;20044;-67
2023/10/03 04:04:25;;;;;;;8.68;3.05;;;;;;;19.06;95.36;100067.13;5027863;28;20037;-67
2023/10/03 04:06:55;;;;;;;7.38;2.90;;;;;;;19.25;94.66;100082.63;5024035;28;20536;-67
2023/10/03 04:09:20;;;;;;;6.20;3.05;;;;;;;19.14;94.84;100078.63;5025760;28;20030;-67
2023/10/03 04:11:47;;;;;;;6.97;2.53;;;;;;;19.17;94.86;100080.50;5027661;28;20037;-67
2023/10/03 04:14:12;;;;;;;8.13;2.72;;;;;;;19.36;93.96;100066.78;5029057;28;20044;-67
2023/10/03 04:16:40;;;;;;;9.82;2.80;;;;;;;19.34;93.52;100057.47;5026338;28;20059;-67
2023/10/03 04:19:06;;;;;;;9.40;2.92;;;;;;;19.31;93.13;100041.91;5026451;28;20116;-66
2023/10/03 04:21:32;;;;;;;8.93;2.55;;;;;;;19.24;93.00;100042.09;5029283;28;20041;-67
2023/10/03 04:23:59;;;;;;;6.63;2.75;;;;;;;19.25;93.53;100038.94;5024982;28;20112;-67
2023/10/03 04:26:25;;;;;;;8.73;2.60;;;;;;;19.33;92.82;100020.44;5028307;28;20072;-67
2023/10/03 04:28:51;;;;;;;8.93;3.28;;;;;;;19.23;92.85;100005.84;5024210;28;20143;-67
2023/10/03 04:31:17;;;;;;;6.90;2.40;;;;;;;19.23;92.63;100013.25;5026153;28;20513;-67
2023/10/03 04:33:44;;;;;;;6.43;2.60;;;;;;;19.10;92.93;100012.41;5008974;28;20065;-67
2023/10/03 04:36:09;;;;;;;8.65;3.00;;;;;;;18.98;92.97;99999.47;5025926;28;20022;-67
2023/10/03 04:38:35;;;;;;;9.25;2.67;;;;;;;19.01;93.70;100002.09;5029345;28;20041;-66
2023/10/03 04:41:01;;;;;;;6.00;2.25;;;;;;;19.15;93.10;100007.22;5031254;28;20041;-67
2023/10/03 04:43:31;;;;;;;5.30;2.50;;;;;;;19.09;93.65;100011.66;5026988;28;20036;-67
2023/10/03 04:45:56;;;;;;;9.57;2.75;;;;;;;19.27;92.15;100003.78;5030057;28;20030;-66
2023/10/03 04:48:22;;;;;;;7.85;2.75;;;;;;;19.25;92.20;100005.41;5031436;28;20033;-67
2023/10/03 04:50:48;;;;;;;8.18;2.80;;;;;;;19.33;91.21;99987.66;5026618;28;20108;-67
2023/10/03 04:53:16;;;;;;;7.80;3.17;;;;;;;19.21;91.95;99983.66;5029036;28;20112;-67
2023/10/03 04:55:48;;;;;;;6.38;2.50;;;;;;;19.24;91.88;99966.41;5029491;28;20034;-67
2023/10/03 04:58:14;;;;;;;7.00;2.28;;;;;;;19.19;91.74;99956.00;5031220;28;20037;-67
2023/10/03 05:00:39;;;;;;;7.78;2.65;;;;;;;19.09;91.52;99951.59;5021937;28;20048;-67
2023/10/03 05:03:09;;;;;;;7.78;2.53;;;;;;;19.20;91.52;99952.06;5022677;28;20033;-67
2023/10/03 05:05:35;;;;;;;6.88;2.75;;;;;;;19.32;90.70;99921.34;5044887;28;20037;-67
2023/10/03 05:08:00;;;;;;;5.95;2.42;;;;;;;19.36;90.66;99922.03;5030461;28;20042;-67
2023/10/03 05:10:30;;;;;;;6.43;2.40;;;;;;;19.32;90.54;99915.88;5024103;28;20048;-67
2023/10/03 05:12:57;;;;;;;7.50;2.88;;;;;;;19.31;90.24;99910.84;5027501;28;20025;-67
2023/10/03 05:15:23;;;;;;;7.50;3.22;;;;;;;18.91;92.15;99924.75;5027970;28;20033;-67
2023/10/03 05:17:49;;;;;;;6.07;2.40;;;;;;;19.13;91.42;99908.59;5027410;28;20120;-66
2023/10/03 05:20:17;;;;;;;7.10;2.88;;;;;;;19.21;90.99;99896.28;5027321;28;20120;-67
2023/10/03 05:22:42;;;;;;;7.40;2.58;;;;;;;19.35;90.79;99906.84;5029783;28;20505;-66
2023/10/03 05:25:13;;;;;;;9.02;3.25;;;;;;;19.30;90.54;99899.13;5029123;28;20053;-67
2023/10/03 05:27:42;;;;;;;8.18;2.92;;;;;;;19.31;90.67;99897.97;5027374;28;20087;-66
2023/10/03 05:30:10;;;;;;;6.93;2.17;;;;;;;18.96;91.46;99890.72;5028896;28;20080;-66
2023/10/03 05:32:36;;;;;;;9.30;2.92;;;;;;;18.73;93.32;99888.19;5029701;28;20029;-67
2023/10/03 05:35:04;;;;;;;7.95;3.00;;;;;;;18.97;92.11;99888.75;5029558;28;20033;-66
2023/10/03 05:37:33;;;;;;;8.40;3.00;;;;;;;19.07;91.70;99874.81;5028885;28;20710;-67
2023/10/03 05:40:11;;;;;;;9.65;2.88;;;;;;;19.03;91.71;99884.31;5022622;28;20064;-67
2023/10/03 05:42:47;;;;;;;6.07;2.55;;;;;;;19.00;91.94;99875.00;5029586;28;20041;-67
2023/10/03 05:45:13;;;;;;;6.57;2.55;;;;;;;19.13;91.61;99861.41;5033192;28;20057;-67
2023/10/03 05:47:46;;;;;;;6.68;2.58;;;;;;;19.15;91.12;99859.00;5030925;28;20064;-66
2023/10/03 05:50:23;;;;;;;11.15;2.95;;;;;;;19.01;91.45;99875.78;5022852;28;20387;-67
2023/10/03 05:52:51;;;;;;;9.15;3.13;;;;;;;19.03;92.16;99876.88;5028178;28;20037;-66
2023/10/03 05:55:17;;;;;;;10.85;2.92;;;;;;;19.18;91.32;99869.81;5030812;28;20025;-67
2023/10/03 05:57:43;;;;;;;6.57;2.63;;;;;;;19.24;90.71;99879.03;5028845;28;20064;-67
2023/10/03 06:00:17;;;;;;;8.93;3.08;;;;;;;19.29;90.56;99875.00;5029068;28;20144;-67
2023/10/03 06:02:47;;;;;;;7.40;2.75;;;;;;;19.14;91.06;99873.88;5027378;28;20057;-67
2023/10/03 06:05:16;;;;;;;8.70;2.42;;;;;;;18.97;92.38;99870.41;5011542;28;20022;-66
2023/10/03 06:07:45;;;;;;;5.20;2.50;;;;;;;19.22;91.29;99853.38;5023912;28;20089;-67
2023/10/03 06:10:11;;;;;;;7.32;2.90;;;;;;;19.40;89.91;99865.34;5024839;28;20101;-67
2023/10/03 06:12:37;;;;;;;7.22;2.63;;;;;;;19.37;90.18;99866.22;5027967;28;20094;-66
2023/10/03 06:15:04;;;;;;;9.00;2.63;;;;;;;19.38;90.46;99872.44;5009086;28;20053;-67
2023/10/03 06:17:31;;;;;;;7.85;2.63;;;;;;;19.53;89.19;99876.31;5024567;28;20042;-67
2023/10/03 06:19:57;;;;;;;7.75;2.60;;;;;;;19.58;88.40;99870.28;5029724;28;20038;-66
2023/10/03 06:22:22;;;;;;;7.95;2.80;;;;;;;19.54;88.93;99858.69;5009706;28;20045;-67
2023/10/03 06:24:49;;;;;;;7.65;2.55;;;;;;;19.70;88.34;99861.34;5024314;28;20041;-67
2023/10/03 06:27:14;;;;;;;10.52;3.15;;;;;;;19.57;88.82;99847.66;5024575;28;20030;-67
2023/10/03 06:29:41;;;;;;;11.63;3.00;;;;;;;19.62;88.52;99849.09;5029183;28;20025;-67
2023/10/03 06:32:07;;;;;;;9.73;2.95;;;;;;;19.56;88.51;99848.09;5027783;28;20498;-66
2023/10/03 06:34:33;;;;;;;8.20;2.17;;;;;;;19.59;88.27;99844.50;5020236;28;20033;-67
2023/10/03 06:36:58;;;;;;;8.10;3.13;;;;;;;19.66;88.55;99844.31;5029555;28;20041;-66
2023/10/03 06:39:24;;;;;;;7.68;3.03;;;;;;;19.80;87.89;99855.56;5021952;28;20030;-66
2023/10/03 06:41:50;;;;;;;5.68;2.72;;;;;;;19.89;87.66;99856.88;5027715;28;20398;-67
2023/10/03 06:44:17;;;;;;;9.95;3.05;;;;;;;19.88;87.52;99844.44;5030160;28;20099;-67
2023/10/03 06:46:42;;;;;;;8.02;2.83;;;;;;;19.89;87.24;99838.50;5031597;28;20033;-67
2023/10/03 06:49:10;;;;;;;8.95;3.05;;;;;;;19.72;88.35;99824.19;5030581;28;20127;-66
2023/10/03 06:51:36;;;;;;;9.98;2.60;;;;;;;19.86;88.05;99828.44;5030528;28;20037;-66
2023/10/03 06:54:03;;;;;;;8.10;3.25;;;;;;;19.94;88.04;99837.97;5027918;28;20025;-67
2023/10/03 06:56:32;;;;;;;7.93;2.65;;;;;;;19.94;87.84;99837.97;5025552;28;20026;-66
2023/10/03 06:58:58;;;;;;;12.13;3.08;;;;;;;20.02;87.72;99838.50;5032175;28;20036;-67
2023/10/03 07:01:24;;;;;;;10.05;3.28;;;;;;;20.00;87.64;99836.22;5028346;28;20034;-66
2023/10/03 07:03:49;;;;;;;8.90;3.10;;;;;;;20.11;87.11;99833.91;5026436;28;20055;-67
2023/10/03 07:06:14;;;;;;;5.82;2.78;;;;;;;20.25;86.74;99830.75;5027947;28;20485;-67
2023/10/03 07:08:41;;;;;;;9.68;3.40;;;;;;;20.29;86.63;99825.16;5026821;28;20105;-66
2023/10/03 07:11:16;;;;;;;10.10;3.08;;;;;;;20.34;86.05;99838.28;5028976;28;20033;-67
2023/10/03 07:13:41;;;;;;;8.07;3.10;;;;;;;20.41;86.36;99838.03;5029035;28;20057;-67
2023/10/03 07:16:08;;;;;;;6.32;2.42;;;;;;;20.45;86.40;99825.78;5030280;28;20060;-66
2023/10/03 07:18:35;;;;;;;9.05;2.50;;;;;;;20.54;85.83;99833.28;5031879;28;20022;-66
2023/10/03 07:21:03;;;;;;;8.07;2.33;;;;;;;20.63;85.65;99836.13;5031427;28;20037;-67
2023/10/03 07:23:29;;;;;;;13.80;3.38;;;;;;;20.67;85.01;99821.09;5024759;28;20478;-67
2023/10/03 07:25:54;;;;;;;8.75;3.08;;;;;;;20.72;85.09;99825.25;5030626;28;20091;-66
2023/10/03 07:28:20;;;;;;;10.65;3.20;;;;;;;20.87;84.92;99820.81;5025517;28;20025;-67
2023/10/03 07:30:45;;;;;;;9.00;2.90;;;;;;;21.01;84.42;99828.56;5029737;28;20045;-67
2023/10/03 07:33:11;;;;;;;8.63;2.78;;;;;;;21.08;84.21;99825.56;5031182;28;20033;-66
2023/10/03 07:35:37;;;;;;;12.13;3.03;;;;;;;21.18;83.90;99829.88;5029894;28;20068;-67
2023/10/03 07:38:03;;;;;;;9.50;2.72;;;;;;;21.26;83.81;99817.47;5031095;28;20063;-67
2023/10/03 07:40:29;;;;;;;6.43;2.53;;;;;;;21.30;83.90;99826.31;5032643;28;20190;-67
2023/10/03 07:42:54;;;;;;;8.82;3.22;;;;;;;21.40;83.57;99825.16;5030736;28;20045;-67
2023/10/03 07:45:21;;;;;;;9.13;3.00;;;;;;;21.45;83.18;99827.31;5028588;28;20022;-67
2023/10/03 07:47:46;;;;;;;8.68;3.10;;;;;;;21.56;82.91;99848.84;5030545;28;20081;-67
2023/10/03 07:50:13;;;;;;;13.23;2.88;;;;;;;21.63;83.17;99856.03;5027691;28;20036;-67
2023/10/03 07:52:40;;;;;;;12.15;3.17;;;;;;;21.77;82.59;99850.00;5025397;28;20111;-67
2023/10/03 07:55:06;;;;;;;11.10;3.25;;;;;;;21.88;82.51;99853.91;5031579;28;20099;-67
2023/10/03 07:57:31;;;;;;;9.50;3.15;;;;;;;22.03;82.05;99854.09;5026042;28;20057;-67
2023/10/03 07:59:57;;;;;;;9.38;3.20;;;;;;;22.11;81.70;99856.13;5030592;28;20413;-67
2023/10/03 08:02:31;;;;;;;12.38;3.30;;;;;;;22.19;81.78;99864.81;5028579;28;20036;-66
2023/10/03 08:05:00;;;;;;;12.48;3.28;;;;;;;22.39;80.68;99859.72;5027673;28;20108;-67
2023/10/03 08:07:28;;;;;;;9.50;3.63;;;;;;;22.56;79.82;99860.19;5029788;28;20033;-67
2023/10/03 08:09:54;;;;;;;7.68;2.72;;;;;;;22.66;79.13;99870.75;5030655;28;20112;-67
2023/10/03 08:12:24;;;;;;;9.68;3.35;;;;;;;22.81;78.67;99857.94;5030549;28;20193;-67
2023/10/03 08:14:53;;;;;;;8.25;2.67;;;;;;;22.73;78.79;99866.94;5025297;28;20028;-66
2023/10/03 08:17:30;;;;;;;13.80;3.38;;;;;;;22.93;78.03;99881.75;5025452;28;20033;-67
2023/10/03 08:19:56;;;;;;;8.40;3.03;;;;;;;22.91;77.87;99864.97;5029079;28;20115;-67
2023/10/03 08:22:22;;;;;;;10.43;3.50;;;;;;;22.95;77.61;99879.31;5025254;28;20045;-67
2023/10/03 08:24:48;;;;;;;11.25;3.20;;;;;;;22.98;77.59;99864.66;5030700;28;20466;-67
2023/10/03 08:27:21;;;;;;;7.68;3.00;;;;;;;22.96;77.62;99878.09;5027535;28;20114;-66
2023/10/03 08:29:57;;;;;;;9.85;2.72;;;;;;;22.84;78.26;99881.00;5027619;28;20091;-66
2023/10/03 08:32:25;;;;;;;8.82;3.45;;;;;;;22.91;78.39;99862.22;5030058;28;20110;-67
2023/10/03 08:34:51;;;;;;;8.98;3.22;;;;;;;22.96;77.51;99863.59;5028865;28;20037;-67
2023/10/03 08:37:24;;;;;;;10.73;3.53;;;;;;;22.95;78.21;99859.31;5028694;28;20402;-67
2023/10/03 08:39:53;;;;;;;10.52;3.70;;;;;;;23.09;77.95;99867.69;5027899;28;20033;-67
2023/10/03 08:42:35;;;;;;;9.48;3.47;;;;;;;23.39;77.61;99848.75;5026411;28;20053;-68
2023/10/03 08:45:22;;;;;;;10.45;3.30;;;;;;;23.63;76.18;99850.41;5026050;28;20048;-66
2023/10/03 08:47:53;;;;;;;9.93;3.33;;;;;;;23.92;75.47;99853.34;5027693;28;20038;-66
2023/10/03 08:50:36;;;;;;;14.32;3.58;;;;;;;24.22;74.44;99873.56;5031312;28;20029;-67
2023/10/03 08:53:26;;;;;;;9.57;3.47;;;;;;;24.45;73.01;99856.28;5023716;28;20079;-66
2023/10/03 08:55:57;;;;;;;9.43;2.97;;;;;;;24.64;72.15;99865.94;5028548;28;20029;-67
2023/10/03 08:58:27;;;;;;;10.43;2.97;;;;;;;24.66;70.50;99862.75;5029136;28;20499;-68
2023/10/03 09:00:58;;;;;;;9.13;2.83;;;;;;;24.46;70.55;99876.34;5010640;28;20048;-67
2023/10/03 09:03:26;;;;;;;9.77;3.15;;;;;;;24.34;70.76;99874.56;5021742;28;20041;-67
2023/10/03 09:05:51;;;;;;;6.85;2.78;;;;;;;24.18;71.66;99868.22;5026557;28;20018;-67
2023/10/03 09:08:17;;;;;;;7.50;2.72;;;;;;;24.02;73.17;99874.09;5028680;28;20431;-67
2023/10/03 09:10:55;;;;;;;7.75;2.55;;;;;;;24.11;72.73;99878.81;5028744;28;20409;-67
2023/10/03 09:13:25;;;;;;;4.70;2.05;;;;;;;24.15;72.34;99884.91;5029308;28;20029;-67
2023/10/03 09:15:59;;;;;;;8.87;2.57;;;;;;;24.24;71.25;99873.84;5025914;28;20558;-67
2023/10/03 09:18:26;;;;;;;6.85;2.50;;;;;;;24.31;71.21;99879.03;5026851;28;20026;-67
2023/10/03 09:20:52;;;;;;;7.18;2.60;;;;;;;24.31;71.47;99872.75;5010485;28;20017;-67
2023/10/03 09:23:17;;;;;;;5.68;2.35;;;;;;;24.37;71.04;99873.63;5021195;28;20044;-67
2023/10/03 09:25:52;;;;;;;7.50;2.55;;;;;;;24.37;70.05;99871.63;5026909;28;20025;-67
2023/10/03 09:28:18;;;;;;;8.07;2.53;;;;;;;24.18;71.21;99879.22;5028242;28;20033;-67
2023/10/03 09:30:44;;;;;;;6.85;2.45;;;;;;;24.07;72.02;99872.72;5024983;28;20029;-67
2023/10/03 09:33:11;;;;;;;4.40;2.20;;;;;;;24.04;72.81;99884.66;5023959;28;20115;-67
2023/10/03 09:35:39;;;;;;;8.40;2.75;;;;;;;23.88;72.89;99901.50;5025431;28;20029;-67
2023/10/03 09:38:17;;;;;;;6.10;2.65;;;;;;;23.81;73.43;99882.59;5026672;28;20044;-65
2023/10/03 09:40:49;;;;;;;8.98;2.33;;;;;;;23.82;73.54;99879.38;5024143;28;20116;-65
2023/10/03 09:43:19;;;;;;;4.88;1.83;;;;;;;23.80;73.88;99870.03;5022915;28;20589;-66
2023/10/03 09:45:46;;;;;;;5.85;2.45;;;;;;;23.75;73.60;99876.19;5021755;28;20030;-67
2023/10/03 09:48:13;;;;;;;8.77;2.42;;;;;;;23.71;74.09;99872.84;5040267;28;20643;-66
2023/10/03 09:50:51;;;;;;;6.50;2.50;;;;;;;23.71;73.97;99864.56;5026945;28;20446;-66
2023/10/03 09:53:18;;;;;;;9.90;2.55;;;;;;;23.68;73.37;99873.75;5026240;28;20038;-66
2023/10/03 09:55:46;;;;;;;8.32;3.05;;;;;;;23.60;73.37;99869.78;5027867;28;20089;-67
2023/10/03 09:58:13;;;;;;;9.25;2.90;;;;;;;23.52;74.00;99868.59;5028816;28;20097;-66
2023/10/03 10:00:50;;;;;;;8.50;2.97;;;;;;;23.54;74.10;99879.91;5021374;28;20124;-67
2023/10/03 10:03:19;;;;;;;6.97;2.67;;;;;;;23.53;73.66;99881.13;5024727;28;20029;-66
2023/10/03 10:05:59;;;;;;;9.30;2.70;;;;;;;23.41;74.25;99887.56;5024545;28;20070;-66
2023/10/03 10:08:37;;;;;;;6.88;2.55;;;;;;;23.33;75.40;99881.59;5026707;28;20502;-66
2023/10/03 10:11:07;;;;;;;5.75;1.98;;;;;;;23.42;75.37;99869.84;5027820;28;20032;-67
2023/10/03 10:13:37;;;;;;;4.35;1.95;;;;;;;23.45;74.37;99880.69;5021840;28;20072;-67
2023/10/03 10:16:13;;;;;;;5.68;1.83;;;;;;;23.42;74.78;99894.59;5027238;28;20033;-66
2023/10/03 10:18:45;;;;;;;4.95;2.10;;;;;;;23.35;74.49;99903.91;5029281;28;20095;-67
2023/10/03 10:21:20;;;;;;;9.23;2.40;;;;;;;23.44;73.54;99892.16;5029768;28;20033;-67
2023/10/03 10:24:16;;;;;;;9.93;2.38;;;;;;;23.23;74.42;99897.31;5028320;28;20529;-67
2023/10/03 10:26:48;;;;;;;4.78;2.13;;;;;;;23.18;74.89;99897.94;5030212;28;20119;-66
2023/10/03 10:29:19;;;;;;;6.85;1.95;;;;;;;23.25;74.39;99896.84;5032839;28;20159;-67
2023/10/03 10:31:49;;;;;;;3.58;1.67;;;;;;;23.22;73.75;99895.03;5037333;28;20037;-67
2023/10/03 10:34:21;;;;;;;2.33;1.23;;;;;;;23.28;73.45;99888.47;5026336;28;20620;-66
2023/10/03 10:36:53;;;;;;;6.68;2.00;;;;;;;23.34;73.22;99901.63;5027990;28;20033;-66
2023/10/03 10:39:23;;;;;;;5.38;1.63;;;;;;;23.32;74.04;99904.06;5033257;28;20489;-67
2023/10/03 10:42:09;;;;;;;5.38;1.40;;;;;;;23.45;73.81;99908.16;5028772;28;20072;-66
2023/10/03 10:44:35;;;;;;;6.07;1.80;;;;;;;23.44;73.57;99914.88;5026751;28;20069;-66
2023/10/03 10:47:05;;;;;;;3.90;1.55;;;;;;;23.57;72.63;99911.97;5032783;28;20061;-66
2023/10/03 10:49:31;;;;;;;3.22;1.38;;;;;;;23.48;72.62;99926.47;5013633;28;20041;-67
2023/10/03 10:52:01;;;;;;;2.17;1.45;;;;;;;23.46;72.80;99923.44;5027891;28;20444;-66
2023/10/03 10:54:29;;;;;;;2.83;1.25;;;;;;;23.49;72.65;99944.53;5034451;28;20029;-66
2023/10/03 10:57:03;;;;;;;3.58;1.50;;;;;;;23.49;72.24;99933.53;5028192;28;20025;-67
2023/10/03 10:59:31;;;;;;;2.08;1.20;;;;;;;23.47;72.58;99940.69;5028602;28;20607;-66
2023/10/03 11:01:58;;;;;;;3.60;1.40;;;;;;;23.22;73.03;99937.03;5029209;28;20033;-67
2023/10/03 11:04:25;;;;;;;3.70;1.05;;;;;;;23.21;73.65;99921.75;5030515;28;20042;-67
2023/10/03 11:06:54;;;;;;;3.92;1.42;;;;;;;23.27;73.39;99932.88;5031023;28;20544;-64
2023/10/03 11:09:20;;;;;;;2.00;1.20;;;;;;;23.21;73.61;99927.25;5029438;28;20068;-65
2023/10/03 11:11:47;;;;;;;1.90;1.23;;;;;;;23.14;74.14;99944.03;5031069;28;20129;-67
2023/10/03 11:14:24;;;;;;;2.05;1.10;;;;;;;23.09;75.63;99966.63;5027860;28;20541;-66
2023/10/03 11:16:49;;;;;;;2.28;1.00;;;;;;;22.92;78.92;99970.88;5031856;28;20045;-67
2023/10/03 11:19:15;;;;;;;4.07;1.55;;;;;;;22.67;83.19;99973.88;5029972;28;20037;-67
2023/10/03 11:21:41;;;;;;;5.30;1.10;;;;;;;22.37;86.12;99985.63;5026056;28;20040;-67
2023/10/03 11:24:14;;;;;;;2.08;1.40;;;;;;;22.10;89.42;99986.28;5024435;28;20055;-65
2023/10/03 11:26:42;;;;;;;5.00;1.50;;;;;;;22.02;89.88;99989.72;5020584;28;20029;-66
2023/10/03 11:29:07;;;;;;;3.80;1.20;;;;;;;21.94;90.65;99991.97;5026219;28;20552;-66
2023/10/03 11:31:40;;;;;;;1.77;1.15;;;;;;;21.87;91.37;100011.44;5025510;28;20037;-66
2023/10/03 11:34:06;;;;;;;2.88;1.42;;;;;;;21.81;92.20;100001.47;5027050;28;20052;-66
2023/10/03 11:36:45;;;;;;;1.98;1.33;;;;;;;21.55;93.69;100001.56;5023457;28;20489;-66
2023/10/03 11:39:18;;;;;;;4.45;1.20;;;;;;;21.54;94.21;100002.75;5024136;28;20044;-67